sensor_id;sensor_type;location;lat;lon;timestamp;P1;durP1;ratioP1;P2;durP2;ratioP2
13034;SDS011;6584;48.022;11.810;2022-07-21T00:02:07;5.18;;;3.78;;
13034;SDS011;6584;48.022;11.810;2022-07-21T00:04:33;5.65;;;3.72;;
13034;SDS011;6584;48.022;11.810;2022-07-21T00:06:59;6.97;;;4.03;;
13034;SDS011;6584;48.022;11.810;2022-07-21T00:09:24;9.85;;;3.75;;
13034;SDS011;6584;48.022;11.810;2022-07-21T00:11:50;4.10;;;3.70;;
13034;SDS011;6584;48.022;11.810;2022-07-21T00:14:16;7.07;;;3.67;;
13034;SDS011;6584;48.022;11.810;2022-07-21T00:16:41;3.92;;;3.53;;
13034;SDS011;6584;48.022;11.810;2022-07-21T00:19:07;5.80;;;3.50;;
13034;SDS011;6584;48.022;11.810;2022-07-21T00:21:34;6.93;;;3.83;;
13034;SDS011;6584;48.022;11.810;2022-07-21T00:24:00;5.00;;;3.63;;
13034;SDS011;6584;48.022;11.810;2022-07-21T00:26:26;5.18;;;3.30;;
13034;SDS011;6584;48.022;11.810;2022-07-21T00:28:51;5.53;;;3.55;;
13034;SDS011;6584;48.022;11.810;2022-07-21T00:31:17;4.43;;;3.72;;
13034;SDS011;6584;48.022;11.810;2022-07-21T00:33:42;5.20;;;3.53;;
13034;SDS011;6584;48.022;11.810;2022-07-21T00:36:08;5.22;;;4.00;;
13034;SDS011;6584;48.022;11.810;2022-07-21T00:38:34;3.90;;;3.60;;
13034;SDS011;6584;48.022;11.810;2022-07-21T00:40:59;7.43;;;3.88;;
13034;SDS011;6584;48.022;11.810;2022-07-21T00:43:25;5.35;;;3.60;;
13034;SDS011;6584;48.022;11.810;2022-07-21T00:45:54;6.72;;;3.90;;
13034;SDS011;6584;48.022;11.810;2022-07-21T00:48:20;4.10;;;3.55;;
13034;SDS011;6584;48.022;11.810;2022-07-21T00:50:46;4.18;;;3.60;;
13034;SDS011;6584;48.022;11.810;2022-07-21T00:53:12;5.20;;;3.60;;
13034;SDS011;6584;48.022;11.810;2022-07-21T00:55:38;4.07;;;3.70;;
13034;SDS011;6584;48.022;11.810;2022-07-21T00:58:08;4.03;;;3.55;;
13034;SDS011;6584;48.022;11.810;2022-07-21T01:00:34;4.18;;;3.67;;
13034;SDS011;6584;48.022;11.810;2022-07-21T01:02:59;4.45;;;3.63;;
13034;SDS011;6584;48.022;11.810;2022-07-21T01:05:25;5.07;;;3.30;;
13034;SDS011;6584;48.022;11.810;2022-07-21T01:07:51;4.90;;;3.70;;
13034;SDS011;6584;48.022;11.810;2022-07-21T01:10:20;4.20;;;3.78;;
13034;SDS011;6584;48.022;11.810;2022-07-21T01:12:48;5.70;;;3.83;;
13034;SDS011;6584;48.022;11.810;2022-07-21T01:15:15;5.32;;;4.07;;
13034;SDS011;6584;48.022;11.810;2022-07-21T01:17:42;4.60;;;3.72;;
13034;SDS011;6584;48.022;11.810;2022-07-21T01:20:10;4.35;;;3.95;;
13034;SDS011;6584;48.022;11.810;2022-07-21T01:22:38;6.18;;;3.83;;
13034;SDS011;6584;48.022;11.810;2022-07-21T01:25:06;6.43;;;3.85;;
13034;SDS011;6584;48.022;11.810;2022-07-21T01:27:32;5.50;;;3.63;;
13034;SDS011;6584;48.022;11.810;2022-07-21T01:29:58;4.53;;;4.10;;
13034;SDS011;6584;48.022;11.810;2022-07-21T01:32:24;7.07;;;4.05;;
13034;SDS011;6584;48.022;11.810;2022-07-21T01:34:50;6.75;;;4.03;;
13034;SDS011;6584;48.022;11.810;2022-07-21T01:37:20;4.53;;;3.83;;
13034;SDS011;6584;48.022;11.810;2022-07-21T01:39:52;7.10;;;3.95;;
13034;SDS011;6584;48.022;11.810;2022-07-21T01:42:36;6.35;;;4.15;;
13034;SDS011;6584;48.022;11.810;2022-07-21T01:45:03;8.45;;;4.10;;
13034;SDS011;6584;48.022;11.810;2022-07-21T01:47:30;5.30;;;3.70;;
13034;SDS011;6584;48.022;11.810;2022-07-21T01:49:56;5.70;;;3.90;;
13034;SDS011;6584;48.022;11.810;2022-07-21T01:52:21;6.47;;;4.40;;
13034;SDS011;6584;48.022;11.810;2022-07-21T01:54:47;4.90;;;4.22;;
13034;SDS011;6584;48.022;11.810;2022-07-21T01:57:13;6.38;;;4.30;;
13034;SDS011;6584;48.022;11.810;2022-07-21T01:59:38;5.43;;;3.70;;
13034;SDS011;6584;48.022;11.810;2022-07-21T02:02:04;8.38;;;4.35;;
13034;SDS011;6584;48.022;11.810;2022-07-21T02:04:30;5.68;;;3.60;;
13034;SDS011;6584;48.022;11.810;2022-07-21T02:06:55;4.82;;;3.95;;
13034;SDS011;6584;48.022;11.810;2022-07-21T02:09:21;6.15;;;4.10;;
13034;SDS011;6584;48.022;11.810;2022-07-21T02:11:47;5.38;;;3.95;;
13034;SDS011;6584;48.022;11.810;2022-07-21T02:14:12;4.80;;;4.30;;
13034;SDS011;6584;48.022;11.810;2022-07-21T02:16:38;4.43;;;4.03;;
13034;SDS011;6584;48.022;11.810;2022-07-21T02:19:04;4.95;;;4.45;;
13034;SDS011;6584;48.022;11.810;2022-07-21T02:21:29;6.47;;;4.63;;
13034;SDS011;6584;48.022;11.810;2022-07-21T02:23:55;6.13;;;5.03;;
13034;SDS011;6584;48.022;11.810;2022-07-21T02:26:21;6.68;;;4.57;;
13034;SDS011;6584;48.022;11.810;2022-07-21T02:28:47;6.72;;;4.40;;
13034;SDS011;6584;48.022;11.810;2022-07-21T02:31:12;8.32;;;4.72;;
13034;SDS011;6584;48.022;11.810;2022-07-21T02:33:38;8.30;;;5.03;;
13034;SDS011;6584;48.022;11.810;2022-07-21T02:36:04;4.80;;;4.40;;
13034;SDS011;6584;48.022;11.810;2022-07-21T02:38:30;6.18;;;4.50;;
13034;SDS011;6584;48.022;11.810;2022-07-21T02:40:55;5.07;;;4.53;;
13034;SDS011;6584;48.022;11.810;2022-07-21T02:43:21;5.63;;;4.50;;
13034;SDS011;6584;48.022;11.810;2022-07-21T02:45:46;6.32;;;4.18;;
13034;SDS011;6584;48.022;11.810;2022-07-21T02:48:12;5.53;;;5.03;;
13034;SDS011;6584;48.022;11.810;2022-07-21T02:50:39;5.63;;;4.55;;
13034;SDS011;6584;48.022;11.810;2022-07-21T02:53:07;7.60;;;5.20;;
13034;SDS011;6584;48.022;11.810;2022-07-21T02:55:43;5.60;;;4.95;;
13034;SDS011;6584;48.022;11.810;2022-07-21T02:58:14;6.78;;;4.78;;
13034;SDS011;6584;48.022;11.810;2022-07-21T03:00:43;7.65;;;4.95;;
13034;SDS011;6584;48.022;11.810;2022-07-21T03:03:10;9.25;;;4.85;;
13034;SDS011;6584;48.022;11.810;2022-07-21T03:05:36;6.38;;;4.80;;
13034;SDS011;6584;48.022;11.810;2022-07-21T03:08:03;6.85;;;4.70;;
13034;SDS011;6584;48.022;11.810;2022-07-21T03:10:29;4.95;;;4.38;;
13034;SDS011;6584;48.022;11.810;2022-07-21T03:12:55;7.80;;;4.80;;
13034;SDS011;6584;48.022;11.810;2022-07-21T03:15:20;7.22;;;4.93;;
13034;SDS011;6584;48.022;11.810;2022-07-21T03:17:46;6.45;;;5.10;;
13034;SDS011;6584;48.022;11.810;2022-07-21T03:20:12;7.40;;;5.15;;
13034;SDS011;6584;48.022;11.810;2022-07-21T03:22:38;5.72;;;5.07;;
13034;SDS011;6584;48.022;11.810;2022-07-21T03:25:04;5.45;;;4.93;;
13034;SDS011;6584;48.022;11.810;2022-07-21T03:27:30;6.50;;;5.57;;
13034;SDS011;6584;48.022;11.810;2022-07-21T03:29:56;7.15;;;5.18;;
13034;SDS011;6584;48.022;11.810;2022-07-21T03:32:21;8.57;;;5.35;;
13034;SDS011;6584;48.022;11.810;2022-07-21T03:34:47;6.10;;;5.50;;
13034;SDS011;6584;48.022;11.810;2022-07-21T03:37:12;5.68;;;5.18;;
13034;SDS011;6584;48.022;11.810;2022-07-21T03:39:38;10.40;;;5.90;;
13034;SDS011;6584;48.022;11.810;2022-07-21T03:42:04;7.70;;;5.93;;
13034;SDS011;6584;48.022;11.810;2022-07-21T03:44:29;6.30;;;5.80;;
13034;SDS011;6584;48.022;11.810;2022-07-21T03:46:55;6.20;;;5.60;;
13034;SDS011;6584;48.022;11.810;2022-07-21T03:49:23;7.07;;;6.35;;
13034;SDS011;6584;48.022;11.810;2022-07-21T03:51:49;7.32;;;6.10;;
13034;SDS011;6584;48.022;11.810;2022-07-21T03:54:17;6.57;;;5.88;;
13034;SDS011;6584;48.022;11.810;2022-07-21T03:56:43;6.80;;;6.10;;
13034;SDS011;6584;48.022;11.810;2022-07-21T03:59:08;6.63;;;6.03;;
13034;SDS011;6584;48.022;11.810;2022-07-21T04:01:34;6.75;;;6.15;;
13034;SDS011;6584;48.022;11.810;2022-07-21T04:03:59;7.07;;;6.10;;
13034;SDS011;6584;48.022;11.810;2022-07-21T04:06:25;7.63;;;6.97;;
13034;SDS011;6584;48.022;11.810;2022-07-21T04:08:51;7.28;;;6.57;;
13034;SDS011;6584;48.022;11.810;2022-07-21T04:11:16;7.20;;;6.60;;
13034;SDS011;6584;48.022;11.810;2022-07-21T04:13:42;7.82;;;6.70;;
13034;SDS011;6584;48.022;11.810;2022-07-21T04:16:07;7.85;;;7.07;;
13034;SDS011;6584;48.022;11.810;2022-07-21T04:18:33;8.45;;;7.10;;
13034;SDS011;6584;48.022;11.810;2022-07-21T04:20:58;7.32;;;6.63;;
13034;SDS011;6584;48.022;11.810;2022-07-21T04:23:24;10.10;;;7.50;;
13034;SDS011;6584;48.022;11.810;2022-07-21T04:25:50;8.25;;;7.55;;
13034;SDS011;6584;48.022;11.810;2022-07-21T04:28:15;8.93;;;7.88;;
13034;SDS011;6584;48.022;11.810;2022-07-21T04:30:41;8.80;;;7.90;;
13034;SDS011;6584;48.022;11.810;2022-07-21T04:33:06;9.32;;;8.02;;
13034;SDS011;6584;48.022;11.810;2022-07-21T04:35:32;14.88;;;8.13;;
13034;SDS011;6584;48.022;11.810;2022-07-21T04:37:58;11.35;;;8.45;;
13034;SDS011;6584;48.022;11.810;2022-07-21T04:40:23;9.68;;;7.63;;
13034;SDS011;6584;48.022;11.810;2022-07-21T04:42:49;9.15;;;7.82;;
13034;SDS011;6584;48.022;11.810;2022-07-21T04:45:15;9.35;;;8.45;;
13034;SDS011;6584;48.022;11.810;2022-07-21T04:47:45;9.00;;;8.18;;
13034;SDS011;6584;48.022;11.810;2022-07-21T04:50:13;9.18;;;8.32;;
13034;SDS011;6584;48.022;11.810;2022-07-21T04:52:40;8.48;;;7.70;;
13034;SDS011;6584;48.022;11.810;2022-07-21T04:55:06;9.65;;;8.75;;
13034;SDS011;6584;48.022;11.810;2022-07-21T04:57:35;8.88;;;7.97;;
13034;SDS011;6584;48.022;11.810;2022-07-21T05:00:06;9.23;;;8.32;;
13034;SDS011;6584;48.022;11.810;2022-07-21T05:02:33;9.68;;;8.77;;
13034;SDS011;6584;48.022;11.810;2022-07-21T05:04:59;9.77;;;8.93;;
13034;SDS011;6584;48.022;11.810;2022-07-21T05:07:26;9.27;;;8.50;;
13034;SDS011;6584;48.022;11.810;2022-07-21T05:09:52;9.93;;;8.73;;
13034;SDS011;6584;48.022;11.810;2022-07-21T05:12:17;9.88;;;8.88;;
13034;SDS011;6584;48.022;11.810;2022-07-21T05:14:43;11.27;;;9.10;;
13034;SDS011;6584;48.022;11.810;2022-07-21T05:17:08;10.20;;;9.18;;
13034;SDS011;6584;48.022;11.810;2022-07-21T05:19:34;9.95;;;9.05;;
13034;SDS011;6584;48.022;11.810;2022-07-21T05:21:59;10.43;;;9.43;;
13034;SDS011;6584;48.022;11.810;2022-07-21T05:24:25;9.85;;;8.85;;
13034;SDS011;6584;48.022;11.810;2022-07-21T05:26:50;10.90;;;9.70;;
13034;SDS011;6584;48.022;11.810;2022-07-21T05:29:16;9.95;;;9.05;;
13034;SDS011;6584;48.022;11.810;2022-07-21T05:31:42;10.63;;;9.57;;
13034;SDS011;6584;48.022;11.810;2022-07-21T05:34:07;11.05;;;9.95;;
13034;SDS011;6584;48.022;11.810;2022-07-21T05:36:33;10.05;;;9.25;;
13034;SDS011;6584;48.022;11.810;2022-07-21T05:38:58;11.38;;;9.40;;
13034;SDS011;6584;48.022;11.810;2022-07-21T05:41:24;10.52;;;9.52;;
13034;SDS011;6584;48.022;11.810;2022-07-21T05:43:49;9.82;;;8.98;;
13034;SDS011;6584;48.022;11.810;2022-07-21T05:46:15;10.05;;;9.05;;
13034;SDS011;6584;48.022;11.810;2022-07-21T05:48:41;10.57;;;9.68;;
13034;SDS011;6584;48.022;11.810;2022-07-21T05:51:06;10.27;;;9.35;;
13034;SDS011;6584;48.022;11.810;2022-07-21T05:53:32;11.00;;;9.63;;
13034;SDS011;6584;48.022;11.810;2022-07-21T05:55:58;10.98;;;9.90;;
13034;SDS011;6584;48.022;11.810;2022-07-21T05:58:23;10.18;;;9.23;;
13034;SDS011;6584;48.022;11.810;2022-07-21T06:00:52;11.10;;;10.00;;
13034;SDS011;6584;48.022;11.810;2022-07-21T06:03:46;11.20;;;9.68;;
13034;SDS011;6584;48.022;11.810;2022-07-21T06:06:14;11.93;;;10.93;;
13034;SDS011;6584;48.022;11.810;2022-07-21T06:08:44;10.65;;;9.65;;
13034;SDS011;6584;48.022;11.810;2022-07-21T06:11:12;10.23;;;9.23;;
13034;SDS011;6584;48.022;11.810;2022-07-21T06:13:39;11.65;;;10.65;;
13034;SDS011;6584;48.022;11.810;2022-07-21T06:16:06;12.68;;;11.30;;
13034;SDS011;6584;48.022;11.810;2022-07-21T06:18:32;12.27;;;11.07;;
13034;SDS011;6584;48.022;11.810;2022-07-21T06:20:58;11.32;;;10.27;;
13034;SDS011;6584;48.022;11.810;2022-07-21T06:23:23;13.30;;;10.55;;
13034;SDS011;6584;48.022;11.810;2022-07-21T06:25:50;11.68;;;10.57;;
13034;SDS011;6584;48.022;11.810;2022-07-21T06:28:16;13.32;;;10.65;;
13034;SDS011;6584;48.022;11.810;2022-07-21T06:30:41;12.25;;;10.98;;
13034;SDS011;6584;48.022;11.810;2022-07-21T06:33:07;10.93;;;10.00;;
13034;SDS011;6584;48.022;11.810;2022-07-21T06:35:33;10.85;;;9.82;;
13034;SDS011;6584;48.022;11.810;2022-07-21T06:37:59;11.82;;;10.73;;
13034;SDS011;6584;48.022;11.810;2022-07-21T06:40:24;12.85;;;11.40;;
13034;SDS011;6584;48.022;11.810;2022-07-21T06:42:50;11.52;;;10.35;;
13034;SDS011;6584;48.022;11.810;2022-07-21T06:45:15;11.68;;;10.57;;
13034;SDS011;6584;48.022;11.810;2022-07-21T06:47:41;11.73;;;10.60;;
13034;SDS011;6584;48.022;11.810;2022-07-21T06:50:07;11.73;;;10.20;;
13034;SDS011;6584;48.022;11.810;2022-07-21T06:52:34;11.10;;;10.00;;
13034;SDS011;6584;48.022;11.810;2022-07-21T06:55:00;12.27;;;10.93;;
13034;SDS011;6584;48.022;11.810;2022-07-21T06:57:26;11.35;;;10.25;;
13034;SDS011;6584;48.022;11.810;2022-07-21T06:59:52;12.20;;;10.25;;
13034;SDS011;6584;48.022;11.810;2022-07-21T07:02:17;11.85;;;10.65;;
13034;SDS011;6584;48.022;11.810;2022-07-21T07:04:43;12.18;;;10.93;;
13034;SDS011;6584;48.022;11.810;2022-07-21T07:07:09;13.02;;;10.65;;
13034;SDS011;6584;48.022;11.810;2022-07-21T07:09:35;11.55;;;10.57;;
13034;SDS011;6584;48.022;11.810;2022-07-21T07:12:01;13.57;;;10.80;;
13034;SDS011;6584;48.022;11.810;2022-07-21T07:14:30;11.90;;;10.70;;
13034;SDS011;6584;48.022;11.810;2022-07-21T07:16:56;12.48;;;11.27;;
13034;SDS011;6584;48.022;11.810;2022-07-21T07:19:22;12.48;;;11.30;;
13034;SDS011;6584;48.022;11.810;2022-07-21T07:21:48;12.70;;;11.38;;
13034;SDS011;6584;48.022;11.810;2022-07-21T07:24:13;12.70;;;11.40;;
13034;SDS011;6584;48.022;11.810;2022-07-21T07:26:39;12.23;;;11.02;;
13034;SDS011;6584;48.022;11.810;2022-07-21T07:29:04;12.45;;;11.25;;
13034;SDS011;6584;48.022;11.810;2022-07-21T07:31:30;14.02;;;12.32;;
13034;SDS011;6584;48.022;11.810;2022-07-21T07:33:56;15.82;;;12.02;;
13034;SDS011;6584;48.022;11.810;2022-07-21T07:36:23;14.15;;;12.70;;
13034;SDS011;6584;48.022;11.810;2022-07-21T07:38:49;13.80;;;12.38;;
13034;SDS011;6584;48.022;11.810;2022-07-21T07:41:16;13.85;;;12.55;;
13034;SDS011;6584;48.022;11.810;2022-07-21T07:43:42;14.05;;;12.80;;
13034;SDS011;6584;48.022;11.810;2022-07-21T07:46:08;14.70;;;13.27;;
13034;SDS011;6584;48.022;11.810;2022-07-21T07:48:35;13.98;;;12.63;;
13034;SDS011;6584;48.022;11.810;2022-07-21T07:51:02;13.20;;;12.00;;
13034;SDS011;6584;48.022;11.810;2022-07-21T07:53:28;13.75;;;12.35;;
13034;SDS011;6584;48.022;11.810;2022-07-21T07:55:54;13.85;;;11.80;;
13034;SDS011;6584;48.022;11.810;2022-07-21T07:58:19;13.35;;;11.90;;
13034;SDS011;6584;48.022;11.810;2022-07-21T08:00:45;13.05;;;11.77;;
13034;SDS011;6584;48.022;11.810;2022-07-21T08:03:11;13.27;;;12.05;;
13034;SDS011;6584;48.022;11.810;2022-07-21T08:05:37;15.05;;;11.98;;
13034;SDS011;6584;48.022;11.810;2022-07-21T08:08:03;13.52;;;11.93;;
13034;SDS011;6584;48.022;11.810;2022-07-21T08:10:28;13.32;;;11.93;;
13034;SDS011;6584;48.022;11.810;2022-07-21T08:12:54;12.93;;;11.70;;
13034;SDS011;6584;48.022;11.810;2022-07-21T08:15:20;13.77;;;12.48;;
13034;SDS011;6584;48.022;11.810;2022-07-21T08:17:45;12.15;;;11.05;;
13034;SDS011;6584;48.022;11.810;2022-07-21T08:20:11;12.57;;;11.30;;
13034;SDS011;6584;48.022;11.810;2022-07-21T08:22:36;12.30;;;10.95;;
13034;SDS011;6584;48.022;11.810;2022-07-21T08:25:02;12.48;;;11.35;;
13034;SDS011;6584;48.022;11.810;2022-07-21T08:27:28;11.70;;;10.60;;
13034;SDS011;6584;48.022;11.810;2022-07-21T08:29:54;10.75;;;9.65;;
13034;SDS011;6584;48.022;11.810;2022-07-21T08:32:19;9.98;;;9.18;;
13034;SDS011;6584;48.022;11.810;2022-07-21T08:34:45;10.68;;;8.38;;
13034;SDS011;6584;48.022;11.810;2022-07-21T08:37:11;11.05;;;9.43;;
13034;SDS011;6584;48.022;11.810;2022-07-21T08:39:37;10.15;;;9.25;;
13034;SDS011;6584;48.022;11.810;2022-07-21T08:42:04;10.65;;;9.10;;
13034;SDS011;6584;48.022;11.810;2022-07-21T08:44:32;9.68;;;8.68;;
13034;SDS011;6584;48.022;11.810;2022-07-21T08:46:58;9.75;;;8.77;;
13034;SDS011;6584;48.022;11.810;2022-07-21T08:49:24;10.10;;;9.00;;
13034;SDS011;6584;48.022;11.810;2022-07-21T08:51:51;10.27;;;9.27;;
13034;SDS011;6584;48.022;11.810;2022-07-21T08:54:17;9.88;;;8.98;;
13034;SDS011;6584;48.022;11.810;2022-07-21T08:56:45;9.25;;;8.45;;
13034;SDS011;6584;48.022;11.810;2022-07-21T08:59:11;8.90;;;8.10;;
13034;SDS011;6584;48.022;11.810;2022-07-21T09:01:37;9.70;;;8.70;;
13034;SDS011;6584;48.022;11.810;2022-07-21T09:07:04;10.85;;;9.20;;
13034;SDS011;6584;48.022;11.810;2022-07-21T09:09:31;11.35;;;9.30;;
13034;SDS011;6584;48.022;11.810;2022-07-21T09:11:58;13.73;;;10.05;;
13034;SDS011;6584;48.022;11.810;2022-07-21T09:14:26;11.52;;;10.30;;
13034;SDS011;6584;48.022;11.810;2022-07-21T09:16:56;10.88;;;9.77;;
13034;SDS011;6584;48.022;11.810;2022-07-21T09:19:24;11.40;;;10.20;;
13034;SDS011;6584;48.022;11.810;2022-07-21T09:21:57;11.27;;;10.27;;
13034;SDS011;6584;48.022;11.810;2022-07-21T09:24:24;11.43;;;10.30;;
13034;SDS011;6584;48.022;11.810;2022-07-21T09:34:42;12.70;;;11.00;;
13034;SDS011;6584;48.022;11.810;2022-07-21T09:37:08;12.35;;;11.23;;
13034;SDS011;6584;48.022;11.810;2022-07-21T09:39:44;13.98;;;11.45;;
13034;SDS011;6584;48.022;11.810;2022-07-21T09:42:13;11.73;;;10.63;;
13034;SDS011;6584;48.022;11.810;2022-07-21T09:44:46;12.00;;;10.80;;
13034;SDS011;6584;48.022;11.810;2022-07-21T09:47:15;11.32;;;10.30;;
13034;SDS011;6584;48.022;11.810;2022-07-21T09:49:41;12.30;;;10.95;;
13034;SDS011;6584;48.022;11.810;2022-07-21T09:52:17;12.38;;;11.18;;
13034;SDS011;6584;48.022;11.810;2022-07-21T09:54:46;12.27;;;11.05;;
13034;SDS011;6584;48.022;11.810;2022-07-21T09:57:12;13.25;;;10.23;;
13034;SDS011;6584;48.022;11.810;2022-07-21T09:59:42;12.35;;;11.23;;
13034;SDS011;6584;48.022;11.810;2022-07-21T10:02:14;13.02;;;11.75;;
13034;SDS011;6584;48.022;11.810;2022-07-21T10:04:56;11.82;;;10.70;;
13034;SDS011;6584;48.022;11.810;2022-07-21T10:07:23;12.27;;;11.02;;
13034;SDS011;6584;48.022;11.810;2022-07-21T10:09:50;11.32;;;10.27;;
13034;SDS011;6584;48.022;11.810;2022-07-21T10:12:16;11.88;;;10.77;;
13034;SDS011;6584;48.022;11.810;2022-07-21T10:14:42;12.60;;;11.18;;
13034;SDS011;6584;48.022;11.810;2022-07-21T10:17:08;13.15;;;11.45;;
13034;SDS011;6584;48.022;11.810;2022-07-21T10:19:36;13.57;;;12.40;;
13034;SDS011;6584;48.022;11.810;2022-07-21T10:22:14;13.70;;;12.40;;
13034;SDS011;6584;48.022;11.810;2022-07-21T10:24:40;13.63;;;12.43;;
13034;SDS011;6584;48.022;11.810;2022-07-21T10:27:07;13.98;;;12.68;;
13034;SDS011;6584;48.022;11.810;2022-07-21T10:32:27;13.57;;;12.27;;
13034;SDS011;6584;48.022;11.810;2022-07-21T10:34:55;14.10;;;12.60;;
13034;SDS011;6584;48.022;11.810;2022-07-21T10:37:43;14.73;;;13.32;;
13034;SDS011;6584;48.022;11.810;2022-07-21T10:42:44;15.00;;;13.60;;
13034;SDS011;6584;48.022;11.810;2022-07-21T10:47:55;14.68;;;13.25;;
13034;SDS011;6584;48.022;11.810;2022-07-21T10:50:29;16.08;;;14.38;;
13034;SDS011;6584;48.022;11.810;2022-07-21T10:52:56;15.15;;;13.77;;
13034;SDS011;6584;48.022;11.810;2022-07-21T10:55:28;14.35;;;13.10;;
13034;SDS011;6584;48.022;11.810;2022-07-21T10:58:08;14.23;;;12.90;;
13034;SDS011;6584;48.022;11.810;2022-07-21T11:00:51;15.43;;;14.02;;
13034;SDS011;6584;48.022;11.810;2022-07-21T11:03:24;14.75;;;13.52;;
13034;SDS011;6584;48.022;11.810;2022-07-21T11:08:48;13.50;;;12.20;;
13034;SDS011;6584;48.022;11.810;2022-07-21T11:11:25;14.45;;;13.05;;
13034;SDS011;6584;48.022;11.810;2022-07-21T11:14:06;13.52;;;12.32;;
13034;SDS011;6584;48.022;11.810;2022-07-21T11:22:00;14.40;;;13.15;;
13034;SDS011;6584;48.022;11.810;2022-07-21T11:24:27;14.18;;;12.90;;
13034;SDS011;6584;48.022;11.810;2022-07-21T11:27:00;16.20;;;14.55;;
13034;SDS011;6584;48.022;11.810;2022-07-21T11:29:31;13.90;;;12.57;;
13034;SDS011;6584;48.022;11.810;2022-07-21T11:31:58;13.68;;;12.40;;
13034;SDS011;6584;48.022;11.810;2022-07-21T11:34:27;12.75;;;11.65;;
13034;SDS011;6584;48.022;11.810;2022-07-21T11:37:14;15.48;;;14.10;;
13034;SDS011;6584;48.022;11.810;2022-07-21T11:39:42;14.63;;;13.27;;
13034;SDS011;6584;48.022;11.810;2022-07-21T11:42:09;13.07;;;11.80;;
13034;SDS011;6584;48.022;11.810;2022-07-21T11:44:37;13.73;;;12.43;;
13034;SDS011;6584;48.022;11.810;2022-07-21T11:47:04;13.38;;;12.27;;
13034;SDS011;6584;48.022;11.810;2022-07-21T11:49:31;15.30;;;12.07;;
13034;SDS011;6584;48.022;11.810;2022-07-21T11:51:58;13.55;;;12.35;;
13034;SDS011;6584;48.022;11.810;2022-07-21T11:56:53;12.63;;;11.52;;
13034;SDS011;6584;48.022;11.810;2022-07-21T11:59:19;13.05;;;11.95;;
13034;SDS011;6584;48.022;11.810;2022-07-21T12:04:29;11.52;;;10.45;;
13034;SDS011;6584;48.022;11.810;2022-07-21T12:07:09;11.40;;;10.40;;
13034;SDS011;6584;48.022;11.810;2022-07-21T12:09:40;12.30;;;11.30;;
13034;SDS011;6584;48.022;11.810;2022-07-21T12:12:07;12.43;;;10.80;;
13034;SDS011;6584;48.022;11.810;2022-07-21T12:14:39;10.50;;;9.60;;
13034;SDS011;6584;48.022;11.810;2022-07-21T12:17:08;12.77;;;10.70;;
13034;SDS011;6584;48.022;11.810;2022-07-21T12:19:34;11.07;;;10.07;;
13034;SDS011;6584;48.022;11.810;2022-07-21T12:22:01;11.18;;;10.05;;
13034;SDS011;6584;48.022;11.810;2022-07-21T12:27:21;11.90;;;10.90;;
13034;SDS011;6584;48.022;11.810;2022-07-21T12:29:47;10.23;;;9.30;;
13034;SDS011;6584;48.022;11.810;2022-07-21T12:32:13;11.32;;;10.13;;
13034;SDS011;6584;48.022;11.810;2022-07-21T12:34:59;10.70;;;9.80;;
13034;SDS011;6584;48.022;11.810;2022-07-21T12:37:50;10.52;;;9.52;;
13034;SDS011;6584;48.022;11.810;2022-07-21T12:40:38;9.70;;;8.90;;
13034;SDS011;6584;48.022;11.810;2022-07-21T12:43:16;9.07;;;8.38;;
13034;SDS011;6584;48.022;11.810;2022-07-21T12:45:47;9.85;;;8.95;;
13034;SDS011;6584;48.022;11.810;2022-07-21T12:48:15;9.50;;;8.68;;
13034;SDS011;6584;48.022;11.810;2022-07-21T12:50:42;11.48;;;10.48;;
13034;SDS011;6584;48.022;11.810;2022-07-21T12:53:45;12.27;;;11.05;;
13034;SDS011;6584;48.022;11.810;2022-07-21T12:56:17;10.38;;;9.38;;
13034;SDS011;6584;48.022;11.810;2022-07-21T12:58:44;11.00;;;10.05;;
13034;SDS011;6584;48.022;11.810;2022-07-21T13:01:11;12.48;;;11.18;;
13034;SDS011;6584;48.022;11.810;2022-07-21T13:03:37;11.05;;;9.95;;
13034;SDS011;6584;48.022;11.810;2022-07-21T13:06:03;12.35;;;11.30;;
13034;SDS011;6584;48.022;11.810;2022-07-21T13:08:30;15.00;;;13.70;;
13034;SDS011;6584;48.022;11.810;2022-07-21T13:10:56;11.48;;;10.48;;
13034;SDS011;6584;48.022;11.810;2022-07-21T13:13:22;12.73;;;11.60;;
13034;SDS011;6584;48.022;11.810;2022-07-21T13:15:48;13.57;;;12.18;;
13034;SDS011;6584;48.022;11.810;2022-07-21T13:18:14;15.07;;;13.60;;
13034;SDS011;6584;48.022;11.810;2022-07-21T13:20:39;14.68;;;13.43;;
13034;SDS011;6584;48.022;11.810;2022-07-21T13:23:05;13.57;;;12.07;;
13034;SDS011;6584;48.022;11.810;2022-07-21T13:25:33;15.52;;;13.90;;
13034;SDS011;6584;48.022;11.810;2022-07-21T13:28:00;12.88;;;11.70;;
13034;SDS011;6584;48.022;11.810;2022-07-21T13:30:27;14.15;;;12.95;;
13034;SDS011;6584;48.022;11.810;2022-07-21T13:32:52;15.25;;;13.73;;
13034;SDS011;6584;48.022;11.810;2022-07-21T13:35:18;15.40;;;13.95;;
13034;SDS011;6584;48.022;11.810;2022-07-21T13:37:44;16.38;;;14.93;;
13034;SDS011;6584;48.022;11.810;2022-07-21T13:40:09;14.63;;;13.20;;
13034;SDS011;6584;48.022;11.810;2022-07-21T13:42:35;15.25;;;13.75;;
13034;SDS011;6584;48.022;11.810;2022-07-21T13:45:02;14.52;;;13.23;;
13034;SDS011;6584;48.022;11.810;2022-07-21T13:47:28;16.25;;;14.70;;
13034;SDS011;6584;48.022;11.810;2022-07-21T13:49:53;17.63;;;15.93;;
13034;SDS011;6584;48.022;11.810;2022-07-21T13:52:19;14.65;;;13.15;;
13034;SDS011;6584;48.022;11.810;2022-07-21T13:54:44;16.13;;;14.48;;
13034;SDS011;6584;48.022;11.810;2022-07-21T13:57:10;16.23;;;14.60;;
13034;SDS011;6584;48.022;11.810;2022-07-21T13:59:35;17.75;;;16.05;;
13034;SDS011;6584;48.022;11.810;2022-07-21T14:02:01;18.20;;;16.27;;
13034;SDS011;6584;48.022;11.810;2022-07-21T14:04:26;18.20;;;15.57;;
13034;SDS011;6584;48.022;11.810;2022-07-21T14:06:52;15.77;;;14.38;;
13034;SDS011;6584;48.022;11.810;2022-07-21T14:09:18;16.77;;;13.88;;
13034;SDS011;6584;48.022;11.810;2022-07-21T14:11:44;14.93;;;13.50;;
13034;SDS011;6584;48.022;11.810;2022-07-21T14:14:10;15.93;;;14.32;;
13034;SDS011;6584;48.022;11.810;2022-07-21T14:16:42;16.23;;;14.73;;
13034;SDS011;6584;48.022;11.810;2022-07-21T14:19:08;18.70;;;16.65;;
13034;SDS011;6584;48.022;11.810;2022-07-21T14:21:33;15.75;;;14.35;;
13034;SDS011;6584;48.022;11.810;2022-07-21T14:23:59;15.25;;;13.75;;
13034;SDS011;6584;48.022;11.810;2022-07-21T14:26:43;15.73;;;14.25;;
13034;SDS011;6584;48.022;11.810;2022-07-21T14:29:09;16.08;;;14.45;;
13034;SDS011;6584;48.022;11.810;2022-07-21T14:31:34;15.02;;;13.65;;
13034;SDS011;6584;48.022;11.810;2022-07-21T14:34:00;15.77;;;14.38;;
13034;SDS011;6584;48.022;11.810;2022-07-21T14:36:25;16.40;;;14.90;;
13034;SDS011;6584;48.022;11.810;2022-07-21T14:38:51;15.55;;;13.82;;
13034;SDS011;6584;48.022;11.810;2022-07-21T14:41:17;14.80;;;13.40;;
13034;SDS011;6584;48.022;11.810;2022-07-21T14:43:42;15.13;;;13.68;;
13034;SDS011;6584;48.022;11.810;2022-07-21T14:46:08;15.38;;;13.98;;
13034;SDS011;6584;48.022;11.810;2022-07-21T14:48:33;14.90;;;13.50;;
13034;SDS011;6584;48.022;11.810;2022-07-21T14:50:59;15.13;;;13.38;;
13034;SDS011;6584;48.022;11.810;2022-07-21T14:53:24;15.43;;;13.88;;
13034;SDS011;6584;48.022;11.810;2022-07-21T14:55:50;14.60;;;13.20;;
13034;SDS011;6584;48.022;11.810;2022-07-21T14:58:16;14.52;;;13.15;;
13034;SDS011;6584;48.022;11.810;2022-07-21T15:00:41;14.10;;;12.80;;
13034;SDS011;6584;48.022;11.810;2022-07-21T15:03:07;15.20;;;13.70;;
13034;SDS011;6584;48.022;11.810;2022-07-21T15:05:33;13.73;;;12.48;;
13034;SDS011;6584;48.022;11.810;2022-07-21T15:07:58;14.30;;;13.00;;
13034;SDS011;6584;48.022;11.810;2022-07-21T15:10:24;14.02;;;12.60;;